»·PEaware :: N316AL KSBP-KBUR

N316AL :: KSBP-KBUR

FLIGHT INFORMATION

Flight Status: Arrived
Operator: Privately registered:
United States
More flights under this callsign
Pilot: Anonymous 16342 (16342)
Aircraft: Unknown
(EPIC)
More flights by this aircraft type
Origin: KSBP San Luis Co Regl
United States
Destination: KBUR Bob Hope-Burbank
United States
More flights between these airports :: More routes between these airports
Route: RZS V386 FIM
File this flight plan on PilotEdge
Remarks:
Altitude:
(Current/Filed)
9,000ft
Speed:
(Current/Filed)
220kts
Departed: 26-Aug-18 11:12 AM
Arrived: 26-Aug-18 11:53 AM
Distance/Time
Traveled:
129nm/0:41
Distance/Time
To Go:
Arrived

Flight Plot

Page will automatically refresh every two minutes.


Map Options




Map Legend


Flown Route
Filed Route
Departure Airport
Arrival Airport
Navaid (VOR, NDB)
Fix

Horizontal Profiles

Position Reports

Time Latitude Longitude Heading Altitude Ground
Speed
26-Aug-18 10:56 35.234347 -120.632957 126 186ft 0kts
26-Aug-18 10:57 35.234347 -120.632957 126 186ft 0kts
26-Aug-18 10:58 35.234347 -120.632957 126 186ft 0kts
26-Aug-18 10:59 35.234347 -120.632957 126 186ft 0kts
26-Aug-18 11:00 35.234347 -120.632957 126 186ft 0kts
26-Aug-18 11:01 35.234347 -120.632956 126 186ft 0kts
26-Aug-18 11:02 35.234347 -120.632956 126 186ft 0kts
26-Aug-18 11:03 35.234346 -120.632956 126 186ft 0kts
26-Aug-18 11:04 35.234346 -120.632956 126 186ft 0kts
26-Aug-18 11:05 35.234346 -120.632956 126 186ft 0kts
26-Aug-18 11:06 35.234346 -120.632956 126 186ft 0kts
26-Aug-18 11:07 35.234346 -120.632956 126 186ft 0kts
26-Aug-18 11:08 35.234439 -120.633518 301 186ft 5kts
26-Aug-18 11:09 35.234489 -120.633636 280 186ft 0kts
26-Aug-18 11:10 35.234489 -120.633636 280 186ft 0kts
26-Aug-18 11:11 35.234489 -120.633636 280 186ft 0kts
26-Aug-18 11:12 35.233262 -120.632349 218 186ft 1kts
26-Aug-18 11:13 35.233348 -120.634065 301 186ft 46kts
26-Aug-18 11:14 35.253697 -120.671621 303 536ft 188kts
26-Aug-18 11:15 35.279870 -120.719597 303 2183ft 165kts
26-Aug-18 11:16 35.259730 -120.749646 142 3828ft 183kts
26-Aug-18 11:17 35.233961 -120.688176 123 6530ft 216kts
26-Aug-18 11:18 35.195317 -120.629592 133 8954ft 239kts
26-Aug-18 11:19 35.145394 -120.564539 134 9004ft 278kts
26-Aug-18 11:20 35.090514 -120.495023 135 9007ft 286kts
26-Aug-18 11:21 35.034879 -120.424969 135 9010ft 288kts
26-Aug-18 11:22 34.979183 -120.355038 134 9011ft 288kts
26-Aug-18 11:23 34.923679 -120.285486 135 9009ft 287kts
26-Aug-18 11:24 34.868350 -120.216271 134 9006ft 287kts
26-Aug-18 11:25 34.812866 -120.146997 135 8997ft 287kts
26-Aug-18 11:26 34.757468 -120.078007 135 8992ft 287kts
26-Aug-18 11:27 34.702019 -120.009098 135 8990ft 286kts
26-Aug-18 11:28 34.646182 -119.939836 135 8987ft 287kts
26-Aug-18 11:29 34.590252 -119.870601 136 8982ft 289kts
26-Aug-18 11:30 34.534753 -119.802038 136 8976ft 281kts
26-Aug-18 11:31 34.502036 -119.718168 104 8973ft 283kts
26-Aug-18 11:32 34.485193 -119.625293 102 8973ft 282kts
26-Aug-18 11:33 34.469213 -119.531967 102 8973ft 282kts
26-Aug-18 11:34 34.453303 -119.438818 101 8971ft 283kts
26-Aug-18 11:35 34.437316 -119.345471 101 8967ft 283kts
26-Aug-18 11:36 34.421895 -119.255785 101 8962ft 282kts
26-Aug-18 11:37 34.405888 -119.163065 101 8963ft 282kts
26-Aug-18 11:38 34.389710 -119.069891 101 8963ft 282kts
26-Aug-18 11:39 34.373503 -118.977002 101 8963ft 282kts
26-Aug-18 11:40 34.356976 -118.884959 107 8639ft 260kts
26-Aug-18 11:41 34.337980 -118.814960 107 7646ft 192kts
26-Aug-18 11:42 34.322339 -118.758563 107 6428ft 163kts
26-Aug-18 11:43 34.308248 -118.710207 108 5216ft 147kts
26-Aug-18 11:44 34.293391 -118.660828 108 5007ft 153kts
26-Aug-18 11:45 34.279228 -118.613905 108 5008ft 145kts
26-Aug-18 11:46 34.277867 -118.566490 81 4658ft 153kts
26-Aug-18 11:47 34.284042 -118.512327 81 3672ft 170kts
26-Aug-18 11:48 34.290076 -118.460598 81 3033ft 122kts
26-Aug-18 11:49 34.294532 -118.420466 80 3016ft 126kts
26-Aug-18 11:50 34.283217 -118.388161 151 2619ft 115kts
26-Aug-18 11:51 34.254414 -118.372452 160 1910ft 115kts
26-Aug-18 11:52 34.226101 -118.363733 170 1196ft 95kts
26-Aug-18 11:53 34.202850 -118.357873 162 738ft 45kts
26-Aug-18 11:54 34.198864 -118.357748 266 738ft 0kts
26-Aug-18 11:55 34.198864 -118.357748 266 738ft 0kts
26-Aug-18 11:56 34.200365 -118.359532 346 738ft 0kts

Navigation Log

Ident Type
Flight plan parsing failed, navigation log unavailable